sensor_id;sensor_type;location;lat;lon;timestamp;temperature;humidity
3330;DHT22;1677;49.576;10.990;2022-07-24T00:01:39;21.50;96.60
3330;DHT22;1677;49.576;10.990;2022-07-24T00:04:05;21.50;97.20
3330;DHT22;1677;49.576;10.990;2022-07-24T00:06:31;21.30;97.80
3330;DHT22;1677;49.576;10.990;2022-07-24T00:08:57;21.20;97.80
3330;DHT22;1677;49.576;10.990;2022-07-24T00:11:22;21.10;98.30
3330;DHT22;1677;49.576;10.990;2022-07-24T00:13:48;21.20;98.60
3330;DHT22;1677;49.576;10.990;2022-07-24T00:16:14;21.70;97.70
3330;DHT22;1677;49.576;10.990;2022-07-24T00:18:39;22.30;96.60
3330;DHT22;1677;49.576;10.990;2022-07-24T00:21:05;22.70;95.10
3330;DHT22;1677;49.576;10.990;2022-07-24T00:23:31;22.90;94.40
3330;DHT22;1677;49.576;10.990;2022-07-24T00:25:57;22.80;94.40
3330;DHT22;1677;49.576;10.990;2022-07-24T00:28:22;22.50;94.60
3330;DHT22;1677;49.576;10.990;2022-07-24T00:30:48;22.10;95.60
3330;DHT22;1677;49.576;10.990;2022-07-24T00:33:13;21.80;96.50
3330;DHT22;1677;49.576;10.990;2022-07-24T00:35:39;21.50;96.90
3330;DHT22;1677;49.576;10.990;2022-07-24T00:38:05;21.20;97.40
3330;DHT22;1677;49.576;10.990;2022-07-24T00:40:31;21.00;98.00
3330;DHT22;1677;49.576;10.990;2022-07-24T00:42:57;20.80;98.40
3330;DHT22;1677;49.576;10.990;2022-07-24T00:45:23;20.70;98.80
3330;DHT22;1677;49.576;10.990;2022-07-24T00:47:49;20.60;99.50
3330;DHT22;1677;49.576;10.990;2022-07-24T00:50:15;20.60;99.50
3330;DHT22;1677;49.576;10.990;2022-07-24T00:52:40;20.50;99.90
3330;DHT22;1677;49.576;10.990;2022-07-24T00:55:08;20.80;99.90
3330;DHT22;1677;49.576;10.990;2022-07-24T00:57:34;21.40;98.50
3330;DHT22;1677;49.576;10.990;2022-07-24T00:59:59;22.30;96.70
3330;DHT22;1677;49.576;10.990;2022-07-24T01:02:25;22.80;95.70
3330;DHT22;1677;49.576;10.990;2022-07-24T01:04:51;22.80;95.10
3330;DHT22;1677;49.576;10.990;2022-07-24T01:07:17;22.50;95.30
3330;DHT22;1677;49.576;10.990;2022-07-24T01:09:43;22.00;96.40
3330;DHT22;1677;49.576;10.990;2022-07-24T01:12:09;21.70;96.60
3330;DHT22;1677;49.576;10.990;2022-07-24T01:14:35;21.30;97.60
3330;DHT22;1677;49.576;10.990;2022-07-24T01:17:01;21.10;98.20
3330;DHT22;1677;49.576;10.990;2022-07-24T01:19:27;20.80;98.90
3330;DHT22;1677;49.576;10.990;2022-07-24T01:21:53;20.70;99.00
3330;DHT22;1677;49.576;10.990;2022-07-24T01:24:20;20.50;99.40
3330;DHT22;1677;49.576;10.990;2022-07-24T01:26:47;20.40;99.90
3330;DHT22;1677;49.576;10.990;2022-07-24T01:29:13;20.30;99.90
3330;DHT22;1677;49.576;10.990;2022-07-24T01:31:39;20.20;99.90
3330;DHT22;1677;49.576;10.990;2022-07-24T01:34:05;20.40;99.90
3330;DHT22;1677;49.576;10.990;2022-07-24T01:36:30;20.90;99.40
3330;DHT22;1677;49.576;10.990;2022-07-24T01:38:56;21.50;97.70
3330;DHT22;1677;49.576;10.990;2022-07-24T01:41:22;21.90;96.60
3330;DHT22;1677;49.576;10.990;2022-07-24T01:43:47;22.00;95.80
3330;DHT22;1677;49.576;10.990;2022-07-24T01:46:13;21.90;95.90
3330;DHT22;1677;49.576;10.990;2022-07-24T01:48:41;21.40;96.90
3330;DHT22;1677;49.576;10.990;2022-07-24T01:51:07;21.20;97.40
3330;DHT22;1677;49.576;10.990;2022-07-24T01:53:32;20.90;98.00
3330;DHT22;1677;49.576;10.990;2022-07-24T01:55:58;20.60;98.70
3330;DHT22;1677;49.576;10.990;2022-07-24T01:58:23;20.30;99.40
3330;DHT22;1677;49.576;10.990;2022-07-24T02:00:49;20.20;99.90
3330;DHT22;1677;49.576;10.990;2022-07-24T02:03:15;20.00;99.90
3330;DHT22;1677;49.576;10.990;2022-07-24T02:05:40;19.90;99.90
3330;DHT22;1677;49.576;10.990;2022-07-24T02:08:06;19.70;99.90
3330;DHT22;1677;49.576;10.990;2022-07-24T02:10:32;19.60;99.90
3330;DHT22;1677;49.576;10.990;2022-07-24T02:12:58;19.60;99.90
3330;DHT22;1677;49.576;10.990;2022-07-24T02:15:24;20.00;99.90
3330;DHT22;1677;49.576;10.990;2022-07-24T02:17:52;20.70;99.90
3330;DHT22;1677;49.576;10.990;2022-07-24T02:20:18;21.50;98.10
3330;DHT22;1677;49.576;10.990;2022-07-24T02:22:44;21.80;96.90
3330;DHT22;1677;49.576;10.990;2022-07-24T02:25:11;21.80;96.60
3330;DHT22;1677;49.576;10.990;2022-07-24T02:27:37;21.60;96.70
3330;DHT22;1677;49.576;10.990;2022-07-24T02:30:11;21.10;97.90
3330;DHT22;1677;49.576;10.990;2022-07-24T02:32:38;20.80;98.30
3330;DHT22;1677;49.576;10.990;2022-07-24T02:35:04;20.50;99.00
3330;DHT22;1677;49.576;10.990;2022-07-24T02:37:29;20.10;99.80
3330;DHT22;1677;49.576;10.990;2022-07-24T02:39:55;19.80;99.90
3330;DHT22;1677;49.576;10.990;2022-07-24T02:42:21;19.70;99.90
3330;DHT22;1677;49.576;10.990;2022-07-24T02:44:46;19.50;99.90
3330;DHT22;1677;49.576;10.990;2022-07-24T02:47:12;19.40;99.90
3330;DHT22;1677;49.576;10.990;2022-07-24T02:49:37;19.30;99.90
3330;DHT22;1677;49.576;10.990;2022-07-24T02:52:03;19.20;99.90
3330;DHT22;1677;49.576;10.990;2022-07-24T02:54:29;19.30;99.90
3330;DHT22;1677;49.576;10.990;2022-07-24T02:56:54;19.80;99.90
3330;DHT22;1677;49.576;10.990;2022-07-24T02:59:20;20.30;99.90
3330;DHT22;1677;49.576;10.990;2022-07-24T03:01:46;21.00;99.60
3330;DHT22;1677;49.576;10.990;2022-07-24T03:04:11;21.20;98.40
3330;DHT22;1677;49.576;10.990;2022-07-24T03:06:37;21.00;98.50
3330;DHT22;1677;49.576;10.990;2022-07-24T03:09:03;20.70;99.00
3330;DHT22;1677;49.576;10.990;2022-07-24T03:11:29;20.30;99.60
3330;DHT22;1677;49.576;10.990;2022-07-24T03:13:54;20.00;99.90
3330;DHT22;1677;49.576;10.990;2022-07-24T03:16:20;19.70;99.90
3330;DHT22;1677;49.576;10.990;2022-07-24T03:18:45;19.50;99.90
3330;DHT22;1677;49.576;10.990;2022-07-24T03:21:13;19.40;99.90
3330;DHT22;1677;49.576;10.990;2022-07-24T03:23:39;19.20;99.90
3330;DHT22;1677;49.576;10.990;2022-07-24T03:26:05;19.10;99.90
3330;DHT22;1677;49.576;10.990;2022-07-24T03:28:31;19.00;99.90
3330;DHT22;1677;49.576;10.990;2022-07-24T03:30:56;18.90;99.90
3330;DHT22;1677;49.576;10.990;2022-07-24T03:33:22;18.90;99.90
3330;DHT22;1677;49.576;10.990;2022-07-24T03:35:47;19.20;99.90
3330;DHT22;1677;49.576;10.990;2022-07-24T03:38:13;19.70;99.90
3330;DHT22;1677;49.576;10.990;2022-07-24T03:40:38;20.40;99.90
3330;DHT22;1677;49.576;10.990;2022-07-24T03:43:04;20.90;99.60
3330;DHT22;1677;49.576;10.990;2022-07-24T03:45:30;21.10;99.00
3330;DHT22;1677;49.576;10.990;2022-07-24T03:47:55;20.80;99.10
3330;DHT22;1677;49.576;10.990;2022-07-24T03:50:21;20.40;99.60
3330;DHT22;1677;49.576;10.990;2022-07-24T03:52:46;20.00;99.90
3330;DHT22;1677;49.576;10.990;2022-07-24T03:55:12;19.70;99.90
3330;DHT22;1677;49.576;10.990;2022-07-24T03:57:37;19.40;99.90
3330;DHT22;1677;49.576;10.990;2022-07-24T04:00:05;19.20;99.90
3330;DHT22;1677;49.576;10.990;2022-07-24T04:02:30;19.10;99.90
3330;DHT22;1677;49.576;10.990;2022-07-24T04:04:56;19.00;99.90
3330;DHT22;1677;49.576;10.990;2022-07-24T04:07:22;19.00;99.90
3330;DHT22;1677;49.576;10.990;2022-07-24T04:09:47;18.80;99.90
3330;DHT22;1677;49.576;10.990;2022-07-24T04:12:13;18.70;99.90
3330;DHT22;1677;49.576;10.990;2022-07-24T04:14:38;18.70;99.90
3330;DHT22;1677;49.576;10.990;2022-07-24T04:17:04;19.00;99.90
3330;DHT22;1677;49.576;10.990;2022-07-24T04:19:29;19.60;99.90
3330;DHT22;1677;49.576;10.990;2022-07-24T04:21:55;20.20;99.90
3330;DHT22;1677;49.576;10.990;2022-07-24T04:24:21;20.60;99.90
3330;DHT22;1677;49.576;10.990;2022-07-24T04:26:46;20.60;99.90
3330;DHT22;1677;49.576;10.990;2022-07-24T04:29:12;20.50;99.90
3330;DHT22;1677;49.576;10.990;2022-07-24T04:31:37;20.10;99.90
3330;DHT22;1677;49.576;10.990;2022-07-24T04:34:03;19.80;99.90
3330;DHT22;1677;49.576;10.990;2022-07-24T04:36:29;19.50;99.90
3330;DHT22;1677;49.576;10.990;2022-07-24T04:38:54;19.30;99.90
3330;DHT22;1677;49.576;10.990;2022-07-24T04:41:20;19.10;99.90
3330;DHT22;1677;49.576;10.990;2022-07-24T04:43:45;19.00;99.90
3330;DHT22;1677;49.576;10.990;2022-07-24T04:46:11;19.00;99.90
3330;DHT22;1677;49.576;10.990;2022-07-24T04:48:36;18.90;99.90
3330;DHT22;1677;49.576;10.990;2022-07-24T04:51:02;18.80;99.90
3330;DHT22;1677;49.576;10.990;2022-07-24T04:53:28;18.80;99.90
3330;DHT22;1677;49.576;10.990;2022-07-24T04:55:56;18.80;99.90
3330;DHT22;1677;49.576;10.990;2022-07-24T04:58:21;19.10;99.90
3330;DHT22;1677;49.576;10.990;2022-07-24T05:00:47;19.80;99.90
3330;DHT22;1677;49.576;10.990;2022-07-24T05:03:13;20.50;99.90
3330;DHT22;1677;49.576;10.990;2022-07-24T05:05:38;21.00;99.90
3330;DHT22;1677;49.576;10.990;2022-07-24T05:08:04;21.20;99.90
3330;DHT22;1677;49.576;10.990;2022-07-24T05:10:30;21.00;99.90
3330;DHT22;1677;49.576;10.990;2022-07-24T05:12:55;20.70;99.90
3330;DHT22;1677;49.576;10.990;2022-07-24T05:15:21;20.40;99.90
3330;DHT22;1677;49.576;10.990;2022-07-24T05:17:46;20.10;99.90
3330;DHT22;1677;49.576;10.990;2022-07-24T05:20:13;20.00;99.90
3330;DHT22;1677;49.576;10.990;2022-07-24T05:22:39;19.80;99.90
3330;DHT22;1677;49.576;10.990;2022-07-24T05:25:05;19.70;99.90
3330;DHT22;1677;49.576;10.990;2022-07-24T05:27:31;19.60;99.90
3330;DHT22;1677;49.576;10.990;2022-07-24T05:29:56;19.60;99.90
3330;DHT22;1677;49.576;10.990;2022-07-24T05:32:22;19.60;99.90
3330;DHT22;1677;49.576;10.990;2022-07-24T05:34:47;19.50;99.90
3330;DHT22;1677;49.576;10.990;2022-07-24T05:37:13;19.50;99.90
3330;DHT22;1677;49.576;10.990;2022-07-24T05:39:38;19.70;99.90
3330;DHT22;1677;49.576;10.990;2022-07-24T05:42:04;20.40;99.90
3330;DHT22;1677;49.576;10.990;2022-07-24T05:44:30;21.30;99.90
3330;DHT22;1677;49.576;10.990;2022-07-24T05:46:55;21.80;99.90
3330;DHT22;1677;49.576;10.990;2022-07-24T05:49:21;22.00;99.70
3330;DHT22;1677;49.576;10.990;2022-07-24T05:51:46;21.80;99.90
3330;DHT22;1677;49.576;10.990;2022-07-24T05:54:12;21.50;99.90
3330;DHT22;1677;49.576;10.990;2022-07-24T05:56:37;21.20;99.90
3330;DHT22;1677;49.576;10.990;2022-07-24T05:59:03;20.90;99.90
3330;DHT22;1677;49.576;10.990;2022-07-24T06:01:28;20.70;99.90
3330;DHT22;1677;49.576;10.990;2022-07-24T06:03:54;20.50;99.90
3330;DHT22;1677;49.576;10.990;2022-07-24T06:06:20;20.30;99.90
3330;DHT22;1677;49.576;10.990;2022-07-24T06:08:45;20.30;99.90
3330;DHT22;1677;49.576;10.990;2022-07-24T06:11:11;20.20;99.90
3330;DHT22;1677;49.576;10.990;2022-07-24T06:13:37;20.10;99.90
3330;DHT22;1677;49.576;10.990;2022-07-24T06:16:03;20.10;99.90
3330;DHT22;1677;49.576;10.990;2022-07-24T06:18:28;20.10;99.90
3330;DHT22;1677;49.576;10.990;2022-07-24T06:20:54;20.20;99.90
3330;DHT22;1677;49.576;10.990;2022-07-24T06:23:20;20.80;99.90
3330;DHT22;1677;49.576;10.990;2022-07-24T06:25:45;21.50;99.90
3330;DHT22;1677;49.576;10.990;2022-07-24T06:28:11;22.10;99.90
3330;DHT22;1677;49.576;10.990;2022-07-24T06:30:36;22.40;99.90
3330;DHT22;1677;49.576;10.990;2022-07-24T06:33:02;22.40;99.90
3330;DHT22;1677;49.576;10.990;2022-07-24T06:35:28;22.20;99.90
3330;DHT22;1677;49.576;10.990;2022-07-24T06:37:54;22.00;99.90
3330;DHT22;1677;49.576;10.990;2022-07-24T06:40:21;21.70;99.90
3330;DHT22;1677;49.576;10.990;2022-07-24T06:42:47;21.60;99.90
3330;DHT22;1677;49.576;10.990;2022-07-24T06:45:13;21.40;99.90
3330;DHT22;1677;49.576;10.990;2022-07-24T06:47:40;21.40;99.90
3330;DHT22;1677;49.576;10.990;2022-07-24T06:50:06;21.30;99.90
3330;DHT22;1677;49.576;10.990;2022-07-24T06:52:31;21.20;99.90
3330;DHT22;1677;49.576;10.990;2022-07-24T06:54:57;21.20;99.90
3330;DHT22;1677;49.576;10.990;2022-07-24T06:57:23;21.20;99.90
3330;DHT22;1677;49.576;10.990;2022-07-24T06:59:51;21.20;99.90
3330;DHT22;1677;49.576;10.990;2022-07-24T07:02:18;21.60;99.90
3330;DHT22;1677;49.576;10.990;2022-07-24T07:04:43;22.20;99.90
3330;DHT22;1677;49.576;10.990;2022-07-24T07:07:09;22.80;99.90
3330;DHT22;1677;49.576;10.990;2022-07-24T07:09:35;23.30;99.90
3330;DHT22;1677;49.576;10.990;2022-07-24T07:12:01;23.40;99.20
3330;DHT22;1677;49.576;10.990;2022-07-24T07:14:27;23.30;99.60
3330;DHT22;1677;49.576;10.990;2022-07-24T07:16:53;23.10;99.90
3330;DHT22;1677;49.576;10.990;2022-07-24T07:19:18;22.90;99.90
3330;DHT22;1677;49.576;10.990;2022-07-24T07:21:44;22.70;99.90
3330;DHT22;1677;49.576;10.990;2022-07-24T07:24:10;22.60;99.90
3330;DHT22;1677;49.576;10.990;2022-07-24T07:26:36;22.50;99.90
3330;DHT22;1677;49.576;10.990;2022-07-24T07:29:02;22.40;99.90
3330;DHT22;1677;49.576;10.990;2022-07-24T07:31:27;22.30;99.90
3330;DHT22;1677;49.576;10.990;2022-07-24T07:33:53;22.30;99.90
3330;DHT22;1677;49.576;10.990;2022-07-24T07:36:19;22.20;99.90
3330;DHT22;1677;49.576;10.990;2022-07-24T07:38:45;22.20;99.90
3330;DHT22;1677;49.576;10.990;2022-07-24T07:41:10;22.20;99.90
3330;DHT22;1677;49.576;10.990;2022-07-24T07:43:37;22.70;99.90
3330;DHT22;1677;49.576;10.990;2022-07-24T07:46:03;23.50;99.90
3330;DHT22;1677;49.576;10.990;2022-07-24T07:48:29;23.90;99.70
3330;DHT22;1677;49.576;10.990;2022-07-24T07:50:56;24.50;98.70
3330;DHT22;1677;49.576;10.990;2022-07-24T07:53:21;24.60;98.00
3330;DHT22;1677;49.576;10.990;2022-07-24T07:55:47;24.40;98.70
3330;DHT22;1677;49.576;10.990;2022-07-24T07:58:17;24.20;99.30
3330;DHT22;1677;49.576;10.990;2022-07-24T08:00:42;24.00;99.40
3330;DHT22;1677;49.576;10.990;2022-07-24T08:03:08;23.80;99.70
3330;DHT22;1677;49.576;10.990;2022-07-24T08:05:34;23.90;99.00
3330;DHT22;1677;49.576;10.990;2022-07-24T08:08:00;23.50;99.00
3330;DHT22;1677;49.576;10.990;2022-07-24T08:10:25;23.40;99.70
3330;DHT22;1677;49.576;10.990;2022-07-24T08:12:51;23.30;99.90
3330;DHT22;1677;49.576;10.990;2022-07-24T08:15:17;23.40;99.90
3330;DHT22;1677;49.576;10.990;2022-07-24T08:17:43;23.50;99.40
3330;DHT22;1677;49.576;10.990;2022-07-24T08:20:09;23.50;99.80
3330;DHT22;1677;49.576;10.990;2022-07-24T08:22:35;23.60;99.90
3330;DHT22;1677;49.576;10.990;2022-07-24T08:25:00;24.20;98.60
3330;DHT22;1677;49.576;10.990;2022-07-24T08:27:26;25.00;96.60
3330;DHT22;1677;49.576;10.990;2022-07-24T08:29:52;25.50;95.10
3330;DHT22;1677;49.576;10.990;2022-07-24T08:32:18;25.80;94.30
3330;DHT22;1677;49.576;10.990;2022-07-24T08:34:44;25.70;94.30
3330;DHT22;1677;49.576;10.990;2022-07-24T08:37:09;25.50;95.00
3330;DHT22;1677;49.576;10.990;2022-07-24T08:39:35;25.40;95.50
3330;DHT22;1677;49.576;10.990;2022-07-24T08:42:00;25.20;95.50
3330;DHT22;1677;49.576;10.990;2022-07-24T08:44:26;25.00;96.10
3330;DHT22;1677;49.576;10.990;2022-07-24T08:46:53;24.80;96.30
3330;DHT22;1677;49.576;10.990;2022-07-24T08:49:20;24.70;96.50
3330;DHT22;1677;49.576;10.990;2022-07-24T08:51:49;24.80;96.70
3330;DHT22;1677;49.576;10.990;2022-07-24T08:54:14;24.80;96.70
3330;DHT22;1677;49.576;10.990;2022-07-24T08:56:40;24.70;96.40
3330;DHT22;1677;49.576;10.990;2022-07-24T08:59:19;24.60;96.50
3330;DHT22;1677;49.576;10.990;2022-07-24T09:01:47;24.90;95.70
3330;DHT22;1677;49.576;10.990;2022-07-24T09:04:42;25.50;93.50
3330;DHT22;1677;49.576;10.990;2022-07-24T09:07:11;26.10;92.80
3330;DHT22;1677;49.576;10.990;2022-07-24T09:09:39;26.60;91.80
3330;DHT22;1677;49.576;10.990;2022-07-24T09:14:35;26.70;90.20
3330;DHT22;1677;49.576;10.990;2022-07-24T09:17:15;26.50;90.30
3330;DHT22;1677;49.576;10.990;2022-07-24T09:19:57;26.30;87.50
3330;DHT22;1677;49.576;10.990;2022-07-24T09:25:16;26.00;88.00
3330;DHT22;1677;49.576;10.990;2022-07-24T09:28:00;25.80;90.20
3330;DHT22;1677;49.576;10.990;2022-07-24T09:30:41;25.70;90.60
3330;DHT22;1677;49.576;10.990;2022-07-24T09:33:15;25.60;90.00
3330;DHT22;1677;49.576;10.990;2022-07-24T09:35:49;25.60;90.30
3330;DHT22;1677;49.576;10.990;2022-07-24T09:38:20;25.50;88.70
3330;DHT22;1677;49.576;10.990;2022-07-24T09:40:50;25.70;87.80
3330;DHT22;1677;49.576;10.990;2022-07-24T09:46:05;27.20;79.00
3330;DHT22;1677;49.576;10.990;2022-07-24T09:48:35;27.50;74.90
3330;DHT22;1677;49.576;10.990;2022-07-24T09:51:14;27.80;72.00
3330;DHT22;1677;49.576;10.990;2022-07-24T09:53:41;27.90;71.60
3330;DHT22;1677;49.576;10.990;2022-07-24T09:56:09;27.80;73.20
3330;DHT22;1677;49.576;10.990;2022-07-24T09:58:38;27.50;74.10
3330;DHT22;1677;49.576;10.990;2022-07-24T10:01:06;27.20;73.90
3330;DHT22;1677;49.576;10.990;2022-07-24T10:03:34;27.00;75.30
3330;DHT22;1677;49.576;10.990;2022-07-24T10:06:04;26.90;75.90
3330;DHT22;1677;49.576;10.990;2022-07-24T10:08:31;26.80;76.10
3330;DHT22;1677;49.576;10.990;2022-07-24T10:10:57;26.70;74.90
3330;DHT22;1677;49.576;10.990;2022-07-24T10:13:24;26.70;77.20
3330;DHT22;1677;49.576;10.990;2022-07-24T10:21:24;27.60;72.90
3330;DHT22;1677;49.576;10.990;2022-07-24T10:26:48;28.80;62.80
3330;DHT22;1677;49.576;10.990;2022-07-24T10:29:24;29.10;64.00
3330;DHT22;1677;49.576;10.990;2022-07-24T10:31:54;29.30;62.70
3330;DHT22;1677;49.576;10.990;2022-07-24T10:37:22;29.30;58.00
3330;DHT22;1677;49.576;10.990;2022-07-24T10:39:58;29.10;59.70
3330;DHT22;1677;49.576;10.990;2022-07-24T10:42:27;29.10;59.30
3330;DHT22;1677;49.576;10.990;2022-07-24T10:45:16;29.20;59.40
3330;DHT22;1677;49.576;10.990;2022-07-24T10:47:43;29.30;59.50
3330;DHT22;1677;49.576;10.990;2022-07-24T10:50:08;29.50;58.40
3330;DHT22;1677;49.576;10.990;2022-07-24T10:52:35;29.60;57.50
3330;DHT22;1677;49.576;10.990;2022-07-24T10:55:26;29.90;56.50
3330;DHT22;1677;49.576;10.990;2022-07-24T10:57:59;30.10;56.50
3330;DHT22;1677;49.576;10.990;2022-07-24T11:00:35;30.80;54.50
3330;DHT22;1677;49.576;10.990;2022-07-24T11:03:04;31.50;51.70
3330;DHT22;1677;49.576;10.990;2022-07-24T11:05:35;32.20;49.90
3330;DHT22;1677;49.576;10.990;2022-07-24T11:08:15;32.50;48.20
3330;DHT22;1677;49.576;10.990;2022-07-24T11:11:04;32.80;47.50
3330;DHT22;1677;49.576;10.990;2022-07-24T11:21:07;32.00;47.40
3330;DHT22;1677;49.576;10.990;2022-07-24T11:23:33;31.90;47.50
3330;DHT22;1677;49.576;10.990;2022-07-24T11:29:16;31.80;46.40
3330;DHT22;1677;49.576;10.990;2022-07-24T11:31:44;31.90;47.40
3330;DHT22;1677;49.576;10.990;2022-07-24T11:34:10;31.80;46.90
3330;DHT22;1677;49.576;10.990;2022-07-24T11:36:40;32.20;46.80
3330;DHT22;1677;49.576;10.990;2022-07-24T11:39:08;32.90;45.10
3330;DHT22;1677;49.576;10.990;2022-07-24T11:41:53;33.40;43.40
3330;DHT22;1677;49.576;10.990;2022-07-24T11:44:26;33.60;43.20
3330;DHT22;1677;49.576;10.990;2022-07-24T11:46:53;33.90;41.90
3330;DHT22;1677;49.576;10.990;2022-07-24T11:49:20;34.00;42.10
3330;DHT22;1677;49.576;10.990;2022-07-24T11:51:48;33.70;41.70
3330;DHT22;1677;49.576;10.990;2022-07-24T11:54:15;33.50;42.70
3330;DHT22;1677;49.576;10.990;2022-07-24T11:56:45;33.30;43.10
3330;DHT22;1677;49.576;10.990;2022-07-24T11:59:32;32.90;43.50
3330;DHT22;1677;49.576;10.990;2022-07-24T12:02:07;32.60;44.00
3330;DHT22;1677;49.576;10.990;2022-07-24T12:04:33;32.30;45.40
3330;DHT22;1677;49.576;10.990;2022-07-24T12:06:59;32.30;45.80
3330;DHT22;1677;49.576;10.990;2022-07-24T12:09:25;32.30;44.80
3330;DHT22;1677;49.576;10.990;2022-07-24T12:11:51;32.30;45.30
3330;DHT22;1677;49.576;10.990;2022-07-24T12:14:19;32.90;44.10
3330;DHT22;1677;49.576;10.990;2022-07-24T12:16:52;33.50;43.10
3330;DHT22;1677;49.576;10.990;2022-07-24T12:19:20;34.00;40.90
3330;DHT22;1677;49.576;10.990;2022-07-24T12:21:48;34.10;40.30
3330;DHT22;1677;49.576;10.990;2022-07-24T12:24:14;34.10;40.40
3330;DHT22;1677;49.576;10.990;2022-07-24T12:26:54;34.40;40.00
3330;DHT22;1677;49.576;10.990;2022-07-24T12:29:22;34.50;40.20
3330;DHT22;1677;49.576;10.990;2022-07-24T12:31:48;34.20;40.50
3330;DHT22;1677;49.576;10.990;2022-07-24T12:34:15;33.80;41.10
3330;DHT22;1677;49.576;10.990;2022-07-24T12:36:41;33.40;41.50
3330;DHT22;1677;49.576;10.990;2022-07-24T12:39:07;33.00;42.30
3330;DHT22;1677;49.576;10.990;2022-07-24T12:41:43;32.70;42.80
3330;DHT22;1677;49.576;10.990;2022-07-24T12:44:09;32.60;43.90
3330;DHT22;1677;49.576;10.990;2022-07-24T12:46:37;32.50;44.20
3330;DHT22;1677;49.576;10.990;2022-07-24T12:51:56;32.50;44.00
3330;DHT22;1677;49.576;10.990;2022-07-24T12:54:25;33.00;43.90
3330;DHT22;1677;49.576;10.990;2022-07-24T12:56:55;33.70;41.90
3330;DHT22;1677;49.576;10.990;2022-07-24T12:59:28;34.10;40.80
3330;DHT22;1677;49.576;10.990;2022-07-24T13:01:56;34.60;40.00
3330;DHT22;1677;49.576;10.990;2022-07-24T13:04:24;34.70;39.60
3330;DHT22;1677;49.576;10.990;2022-07-24T13:06:58;34.90;39.80
3330;DHT22;1677;49.576;10.990;2022-07-24T13:09:25;35.20;39.20
3330;DHT22;1677;49.576;10.990;2022-07-24T13:11:53;35.20;38.30
3330;DHT22;1677;49.576;10.990;2022-07-24T13:14:21;34.90;37.90
3330;DHT22;1677;49.576;10.990;2022-07-24T13:16:48;34.60;38.20
3330;DHT22;1677;49.576;10.990;2022-07-24T13:19:15;34.30;39.20
3330;DHT22;1677;49.576;10.990;2022-07-24T13:21:41;33.90;39.40
3330;DHT22;1677;49.576;10.990;2022-07-24T13:24:08;33.70;39.70
3330;DHT22;1677;49.576;10.990;2022-07-24T13:26:35;33.40;39.80
3330;DHT22;1677;49.576;10.990;2022-07-24T13:29:02;33.00;40.10
3330;DHT22;1677;49.576;10.990;2022-07-24T13:31:28;32.70;40.40
3330;DHT22;1677;49.576;10.990;2022-07-24T13:33:54;32.60;41.60
3330;DHT22;1677;49.576;10.990;2022-07-24T13:36:19;33.10;41.60
3330;DHT22;1677;49.576;10.990;2022-07-24T13:38:45;33.90;39.10
3330;DHT22;1677;49.576;10.990;2022-07-24T13:41:12;34.50;37.80
3330;DHT22;1677;49.576;10.990;2022-07-24T13:43:38;34.90;36.80
3330;DHT22;1677;49.576;10.990;2022-07-24T13:46:04;34.90;36.60
3330;DHT22;1677;49.576;10.990;2022-07-24T13:48:30;34.90;36.80
3330;DHT22;1677;49.576;10.990;2022-07-24T13:50:56;35.10;36.50
3330;DHT22;1677;49.576;10.990;2022-07-24T13:53:22;35.10;35.50
3330;DHT22;1677;49.576;10.990;2022-07-24T13:55:48;35.20;36.80
3330;DHT22;1677;49.576;10.990;2022-07-24T13:58:14;35.30;35.70
3330;DHT22;1677;49.576;10.990;2022-07-24T14:00:40;35.40;35.10
3330;DHT22;1677;49.576;10.990;2022-07-24T14:03:06;34.90;35.40
3330;DHT22;1677;49.576;10.990;2022-07-24T14:05:31;34.70;37.00
3330;DHT22;1677;49.576;10.990;2022-07-24T14:07:57;34.40;37.20
3330;DHT22;1677;49.576;10.990;2022-07-24T14:10:23;34.00;38.20
3330;DHT22;1677;49.576;10.990;2022-07-24T14:12:48;33.70;38.00
3330;DHT22;1677;49.576;10.990;2022-07-24T14:15:14;33.40;37.70
3330;DHT22;1677;49.576;10.990;2022-07-24T14:17:41;33.10;37.90
3330;DHT22;1677;49.576;10.990;2022-07-24T14:20:11;33.00;38.70
3330;DHT22;1677;49.576;10.990;2022-07-24T14:22:38;33.50;37.90
3330;DHT22;1677;49.576;10.990;2022-07-24T14:25:05;34.20;35.90
3330;DHT22;1677;49.576;10.990;2022-07-24T14:27:31;34.50;35.10
3330;DHT22;1677;49.576;10.990;2022-07-24T14:29:57;34.60;34.50
3330;DHT22;1677;49.576;10.990;2022-07-24T14:32:23;34.50;34.80
3330;DHT22;1677;49.576;10.990;2022-07-24T14:34:48;34.50;34.90
3330;DHT22;1677;49.576;10.990;2022-07-24T14:37:14;34.40;35.00
3330;DHT22;1677;49.576;10.990;2022-07-24T14:39:39;34.50;35.00
3330;DHT22;1677;49.576;10.990;2022-07-24T14:42:05;34.60;35.00
3330;DHT22;1677;49.576;10.990;2022-07-24T14:44:31;34.40;35.10
3330;DHT22;1677;49.576;10.990;2022-07-24T14:46:56;34.30;35.70
3330;DHT22;1677;49.576;10.990;2022-07-24T14:49:24;33.90;36.70
3330;DHT22;1677;49.576;10.990;2022-07-24T14:51:49;33.60;36.30
3330;DHT22;1677;49.576;10.990;2022-07-24T14:54:15;33.30;36.80
3330;DHT22;1677;49.576;10.990;2022-07-24T14:56:41;33.10;37.40
3330;DHT22;1677;49.576;10.990;2022-07-24T14:59:07;32.90;38.00
3330;DHT22;1677;49.576;10.990;2022-07-24T15:01:32;32.70;38.30
3330;DHT22;1677;49.576;10.990;2022-07-24T15:03:58;32.60;38.00
3330;DHT22;1677;49.576;10.990;2022-07-24T15:06:24;32.80;38.10
3330;DHT22;1677;49.576;10.990;2022-07-24T15:08:49;33.30;37.00
3330;DHT22;1677;49.576;10.990;2022-07-24T15:11:15;33.80;36.90
3330;DHT22;1677;49.576;10.990;2022-07-24T15:13:41;34.20;36.00
3330;DHT22;1677;49.576;10.990;2022-07-24T15:16:07;34.30;35.40
3330;DHT22;1677;49.576;10.990;2022-07-24T15:18:34;34.30;34.20
3330;DHT22;1677;49.576;10.990;2022-07-24T15:21:00;34.30;34.20
3330;DHT22;1677;49.576;10.990;2022-07-24T15:23:26;34.10;34.70
3330;DHT22;1677;49.576;10.990;2022-07-24T15:25:51;34.10;35.20
3330;DHT22;1677;49.576;10.990;2022-07-24T15:28:18;34.20;35.10
3330;DHT22;1677;49.576;10.990;2022-07-24T15:30:44;34.10;35.50
3330;DHT22;1677;49.576;10.990;2022-07-24T15:33:10;33.90;35.40
3330;DHT22;1677;49.576;10.990;2022-07-24T15:35:35;33.70;35.40
3330;DHT22;1677;49.576;10.990;2022-07-24T15:38:01;33.50;36.30
3330;DHT22;1677;49.576;10.990;2022-07-24T15:40:26;33.10;36.70
3330;DHT22;1677;49.576;10.990;2022-07-24T15:42:53;32.80;37.00
3330;DHT22;1677;49.576;10.990;2022-07-24T15:45:20;32.60;37.30
3330;DHT22;1677;49.576;10.990;2022-07-24T15:47:45;32.40;37.50
3330;DHT22;1677;49.576;10.990;2022-07-24T15:50:11;32.30;37.90
3330;DHT22;1677;49.576;10.990;2022-07-24T15:52:36;32.50;37.40
3330;DHT22;1677;49.576;10.990;2022-07-24T15:55:02;33.20;36.30
3330;DHT22;1677;49.576;10.990;2022-07-24T15:57:28;33.70;35.20
3330;DHT22;1677;49.576;10.990;2022-07-24T15:59:54;34.10;34.20
3330;DHT22;1677;49.576;10.990;2022-07-24T16:02:20;34.20;33.90
3330;DHT22;1677;49.576;10.990;2022-07-24T16:04:48;34.30;33.90
3330;DHT22;1677;49.576;10.990;2022-07-24T16:07:14;34.30;33.90
3330;DHT22;1677;49.576;10.990;2022-07-24T16:09:41;34.40;34.00
3330;DHT22;1677;49.576;10.990;2022-07-24T16:12:07;34.30;33.70
3330;DHT22;1677;49.576;10.990;2022-07-24T16:14:33;34.20;33.70
3330;DHT22;1677;49.576;10.990;2022-07-24T16:16:58;34.00;33.90